sensor_id;sensor_type;location;lat;lon;timestamp;pressure;altitude;pressure_sealevel;temperature;humidity
21547;BME280;41275;51.912;4.388;2023-07-08T00:01:55;101661.22;;;29.60;28.35
21547;BME280;41275;51.912;4.388;2023-07-08T00:07:18;101668.19;;;29.49;28.78
21547;BME280;41275;51.912;4.388;2023-07-08T00:12:43;101666.34;;;29.41;28.88
21547;BME280;41275;51.912;4.388;2023-07-08T00:18:16;101651.03;;;29.27;28.83
21547;BME280;41275;51.912;4.388;2023-07-08T00:23:38;101645.34;;;29.20;28.90
21547;BME280;41275;51.912;4.388;2023-07-08T00:28:59;101655.97;;;29.13;29.07
21547;BME280;41275;51.912;4.388;2023-07-08T00:34:20;101640.81;;;29.03;29.12
21547;BME280;41275;51.912;4.388;2023-07-08T00:39:41;101648.41;;;28.98;29.57
21547;BME280;41275;51.912;4.388;2023-07-08T00:45:13;101648.88;;;28.91;29.31
21547;BME280;41275;51.912;4.388;2023-07-08T00:50:36;101651.19;;;28.80;29.80
21547;BME280;41275;51.912;4.388;2023-07-08T00:56:08;101643.06;;;28.72;30.06
21547;BME280;41275;51.912;4.388;2023-07-08T01:01:32;101643.63;;;28.65;30.01
21547;BME280;41275;51.912;4.388;2023-07-08T01:06:58;101637.41;;;28.56;30.03
21547;BME280;41275;51.912;4.388;2023-07-08T01:12:25;101637.44;;;28.47;30.52
21547;BME280;41275;51.912;4.388;2023-07-08T01:17:47;101633.66;;;28.40;30.75
21547;BME280;41275;51.912;4.388;2023-07-08T01:23:14;101632.53;;;28.32;30.70
21547;BME280;41275;51.912;4.388;2023-07-08T01:28:35;101628.56;;;28.21;30.68
21547;BME280;41275;51.912;4.388;2023-07-08T01:33:56;101617.53;;;28.17;30.91
21547;BME280;41275;51.912;4.388;2023-07-08T01:39:20;101625.09;;;28.11;31.20
21547;BME280;41275;51.912;4.388;2023-07-08T01:44:42;101623.19;;;28.03;31.24
21547;BME280;41275;51.912;4.388;2023-07-08T01:50:03;101618.25;;;27.97;31.29
21547;BME280;41275;51.912;4.388;2023-07-08T01:55:25;101610.59;;;27.90;31.56
21547;BME280;41275;51.912;4.388;2023-07-08T02:00:50;101604.72;;;27.79;31.51
21547;BME280;41275;51.912;4.388;2023-07-08T02:06:11;101600.88;;;27.72;31.97
21547;BME280;41275;51.912;4.388;2023-07-08T02:11:32;101586.16;;;27.64;32.18
21547;BME280;41275;51.912;4.388;2023-07-08T02:16:53;101593.03;;;27.61;32.38
21547;BME280;41275;51.912;4.388;2023-07-08T02:22:16;101588.41;;;27.53;32.17
21547;BME280;41275;51.912;4.388;2023-07-08T02:27:37;101583.00;;;27.45;32.81
21547;BME280;41275;51.912;4.388;2023-07-08T02:32:59;101573.72;;;27.37;32.65
21547;BME280;41275;51.912;4.388;2023-07-08T02:38:20;101576.78;;;27.27;33.08
21547;BME280;41275;51.912;4.388;2023-07-08T02:43:41;101577.59;;;27.19;33.36
21547;BME280;41275;51.912;4.388;2023-07-08T02:49:02;101567.81;;;27.09;33.42
21547;BME280;41275;51.912;4.388;2023-07-08T02:54:25;101571.34;;;27.01;33.77
21547;BME280;41275;51.912;4.388;2023-07-08T02:59:46;101572.31;;;26.96;33.76
21547;BME280;41275;51.912;4.388;2023-07-08T03:05:07;101571.63;;;26.90;33.91
21547;BME280;41275;51.912;4.388;2023-07-08T03:10:28;101582.66;;;26.85;34.40
21547;BME280;41275;51.912;4.388;2023-07-08T03:15:50;101597.50;;;26.79;34.41
21547;BME280;41275;51.912;4.388;2023-07-08T03:21:13;101591.72;;;26.72;34.71
21547;BME280;41275;51.912;4.388;2023-07-08T03:26:35;101583.28;;;26.65;34.82
21547;BME280;41275;51.912;4.388;2023-07-08T03:31:56;101589.63;;;26.60;35.07
21547;BME280;41275;51.912;4.388;2023-07-08T03:37:18;101584.88;;;26.57;35.14
21547;BME280;41275;51.912;4.388;2023-07-08T03:42:39;101585.81;;;26.53;35.39
21547;BME280;41275;51.912;4.388;2023-07-08T03:48:00;101576.38;;;26.50;35.30
21547;BME280;41275;51.912;4.388;2023-07-08T03:53:21;101584.34;;;26.47;35.32
21547;BME280;41275;51.912;4.388;2023-07-08T03:58:42;101578.13;;;26.46;35.48
21547;BME280;41275;51.912;4.388;2023-07-08T04:04:04;101589.78;;;26.47;35.58
21547;BME280;41275;51.912;4.388;2023-07-08T04:09:25;101592.50;;;26.47;35.67
21547;BME280;41275;51.912;4.388;2023-07-08T04:14:46;101609.91;;;26.46;35.61
21547;BME280;41275;51.912;4.388;2023-07-08T04:20:15;101605.44;;;26.50;35.73
21547;BME280;41275;51.912;4.388;2023-07-08T04:25:37;101607.03;;;26.51;35.85
21547;BME280;41275;51.912;4.388;2023-07-08T04:30:58;101608.63;;;26.52;35.68
21547;BME280;41275;51.912;4.388;2023-07-08T04:36:19;101608.97;;;26.59;35.76
21547;BME280;41275;51.912;4.388;2023-07-08T04:41:42;101613.94;;;26.65;35.67
21547;BME280;41275;51.912;4.388;2023-07-08T04:47:04;101601.63;;;26.68;35.55
21547;BME280;41275;51.912;4.388;2023-07-08T04:52:25;101596.53;;;26.75;35.51
21547;BME280;41275;51.912;4.388;2023-07-08T04:57:47;101598.00;;;26.81;35.58
21547;BME280;41275;51.912;4.388;2023-07-08T05:03:08;101596.25;;;26.94;35.56
21547;BME280;41275;51.912;4.388;2023-07-08T05:08:29;101594.03;;;27.05;35.54
21547;BME280;41275;51.912;4.388;2023-07-08T05:13:51;101597.69;;;27.09;35.40
21547;BME280;41275;51.912;4.388;2023-07-08T05:19:12;101600.44;;;27.17;35.31
21547;BME280;41275;51.912;4.388;2023-07-08T05:24:33;101593.41;;;27.25;35.16
21547;BME280;41275;51.912;4.388;2023-07-08T05:29:54;101591.00;;;27.32;35.15
21547;BME280;41275;51.912;4.388;2023-07-08T05:35:16;101591.47;;;27.43;34.88
21547;BME280;41275;51.912;4.388;2023-07-08T05:40:37;101584.41;;;27.59;34.70
21547;BME280;41275;51.912;4.388;2023-07-08T05:45:59;101590.97;;;27.76;34.41
21547;BME280;41275;51.912;4.388;2023-07-08T05:51:21;101585.44;;;28.40;33.57
21547;BME280;41275;51.912;4.388;2023-07-08T05:56:42;101588.19;;;28.61;33.03
21547;BME280;41275;51.912;4.388;2023-07-08T06:02:03;101584.72;;;28.52;33.09
21547;BME280;41275;51.912;4.388;2023-07-08T06:07:25;101578.41;;;28.39;33.38
21547;BME280;41275;51.912;4.388;2023-07-08T06:12:46;101581.69;;;28.53;33.00
21547;BME280;41275;51.912;4.388;2023-07-08T06:18:08;101586.53;;;28.69;32.62
21547;BME280;41275;51.912;4.388;2023-07-08T06:23:29;101592.09;;;28.81;33.13
21547;BME280;41275;51.912;4.388;2023-07-08T06:28:51;101588.91;;;29.00;32.52
21547;BME280;41275;51.912;4.388;2023-07-08T06:34:12;101590.56;;;29.13;32.13
21547;BME280;41275;51.912;4.388;2023-07-08T06:39:33;101590.16;;;29.23;31.93
21547;BME280;41275;51.912;4.388;2023-07-08T06:44:54;101566.22;;;29.29;31.76
21547;BME280;41275;51.912;4.388;2023-07-08T06:50:16;101579.56;;;29.55;31.63
21547;BME280;41275;51.912;4.388;2023-07-08T06:55:37;101590.34;;;29.72;31.39
21547;BME280;41275;51.912;4.388;2023-07-08T07:00:58;101590.34;;;29.84;31.17
21547;BME280;41275;51.912;4.388;2023-07-08T07:06:19;101585.94;;;29.92;31.17
21547;BME280;41275;51.912;4.388;2023-07-08T07:11:40;101582.84;;;29.94;31.48
21547;BME280;41275;51.912;4.388;2023-07-08T07:17:01;101572.28;;;29.92;31.50
21547;BME280;41275;51.912;4.388;2023-07-08T07:22:23;101576.41;;;30.11;31.35
21547;BME280;41275;51.912;4.388;2023-07-08T07:27:44;101563.88;;;30.09;31.30
21547;BME280;41275;51.912;4.388;2023-07-08T07:33:05;101564.47;;;30.27;31.11
21547;BME280;41275;51.912;4.388;2023-07-08T07:38:26;101553.41;;;30.48;30.71
21547;BME280;41275;51.912;4.388;2023-07-08T07:43:49;101555.09;;;30.77;30.38
21547;BME280;41275;51.912;4.388;2023-07-08T07:49:11;101566.81;;;31.06;30.51
21547;BME280;41275;51.912;4.388;2023-07-08T07:54:32;101581.75;;;31.37;29.99
21547;BME280;41275;51.912;4.388;2023-07-08T07:59:53;101582.66;;;31.41;30.04
21547;BME280;41275;51.912;4.388;2023-07-08T08:05:14;101583.53;;;31.45;30.06
21547;BME280;41275;51.912;4.388;2023-07-08T08:10:35;101586.38;;;31.48;30.50
21547;BME280;41275;51.912;4.388;2023-07-08T08:15:57;101587.19;;;31.65;30.26
21547;BME280;41275;51.912;4.388;2023-07-08T08:21:18;101592.97;;;31.91;29.94
21547;BME280;41275;51.912;4.388;2023-07-08T08:26:40;101596.31;;;32.16;29.65
21547;BME280;41275;51.912;4.388;2023-07-08T08:32:01;101596.78;;;32.38;29.77
21547;BME280;41275;51.912;4.388;2023-07-08T08:37:23;101590.19;;;32.55;28.88
21547;BME280;41275;51.912;4.388;2023-07-08T08:42:50;101581.25;;;32.77;29.01
21547;BME280;41275;51.912;4.388;2023-07-08T08:48:17;101587.13;;;33.14;28.51
21547;BME280;41275;51.912;4.388;2023-07-08T08:53:40;101591.81;;;33.33;27.86
21547;BME280;41275;51.912;4.388;2023-07-08T08:59:10;101588.53;;;33.47;27.57
21547;BME280;41275;51.912;4.388;2023-07-08T09:04:36;101584.78;;;33.78;27.66
21547;BME280;41275;51.912;4.388;2023-07-08T09:10:04;101588.59;;;33.96;27.58
21547;BME280;41275;51.912;4.388;2023-07-08T09:15:29;101586.84;;;34.08;27.62
21547;BME280;41275;51.912;4.388;2023-07-08T09:20:52;101582.00;;;34.24;27.37
21547;BME280;41275;51.912;4.388;2023-07-08T09:26:19;101581.28;;;34.31;27.18
21547;BME280;41275;51.912;4.388;2023-07-08T09:31:42;101595.59;;;34.70;27.11
21547;BME280;41275;51.912;4.388;2023-07-08T09:37:20;101593.50;;;34.90;26.77
21547;BME280;41275;51.912;4.388;2023-07-08T09:42:43;101587.53;;;35.14;26.42
21547;BME280;41275;51.912;4.388;2023-07-08T09:48:15;101577.19;;;35.41;25.84
21547;BME280;41275;51.912;4.388;2023-07-08T09:53:37;101566.38;;;35.59;25.47
21547;BME280;41275;51.912;4.388;2023-07-08T09:58:58;101574.34;;;35.72;25.13
21547;BME280;41275;51.912;4.388;2023-07-08T10:04:20;101581.31;;;36.06;25.18
21547;BME280;41275;51.912;4.388;2023-07-08T10:09:42;101585.44;;;36.37;24.94
21547;BME280;41275;51.912;4.388;2023-07-08T10:15:20;101583.59;;;36.52;25.11
21547;BME280;41275;51.912;4.388;2023-07-08T10:26:28;101591.16;;;36.70;24.78
21547;BME280;41275;51.912;4.388;2023-07-08T10:32:00;101599.59;;;36.98;24.98
21547;BME280;41275;51.912;4.388;2023-07-08T10:37:42;101596.84;;;37.13;24.33
21547;BME280;41275;51.912;4.388;2023-07-08T10:55:14;101591.84;;;37.57;23.11
21547;BME280;41275;51.912;4.388;2023-07-08T11:01:09;101588.69;;;37.66;22.63
21547;BME280;41275;51.912;4.388;2023-07-08T11:06:46;101600.91;;;37.62;21.93
21547;BME280;41275;51.912;4.388;2023-07-08T11:12:26;101589.84;;;37.76;21.15
21547;BME280;41275;51.912;4.388;2023-07-08T11:17:53;101586.72;;;37.95;20.68
21547;BME280;41275;51.912;4.388;2023-07-08T11:23:22;101587.84;;;38.16;20.30
21547;BME280;41275;51.912;4.388;2023-07-08T11:28:47;101576.38;;;38.39;21.48
21547;BME280;41275;51.912;4.388;2023-07-08T11:34:11;101579.56;;;38.37;21.52
21547;BME280;41275;51.912;4.388;2023-07-08T11:39:46;101575.94;;;38.47;21.93
21547;BME280;41275;51.912;4.388;2023-07-08T11:45:18;101577.00;;;38.89;21.76
21547;BME280;41275;51.912;4.388;2023-07-08T11:50:45;101569.28;;;39.25;22.09
21547;BME280;41275;51.912;4.388;2023-07-08T12:02:02;101557.72;;;39.38;21.74
21547;BME280;41275;51.912;4.388;2023-07-08T12:07:40;101562.69;;;39.57;21.42
21547;BME280;41275;51.912;4.388;2023-07-08T12:13:02;101557.63;;;39.52;21.07
21547;BME280;41275;51.912;4.388;2023-07-08T12:18:25;101557.88;;;39.68;21.00
21547;BME280;41275;51.912;4.388;2023-07-08T12:23:48;101552.59;;;39.85;20.78
21547;BME280;41275;51.912;4.388;2023-07-08T12:29:13;101540.88;;;40.45;20.12
21547;BME280;41275;51.912;4.388;2023-07-08T12:34:34;101541.38;;;41.72;18.74
21547;BME280;41275;51.912;4.388;2023-07-08T12:39:56;101538.56;;;42.75;17.77
21547;BME280;41275;51.912;4.388;2023-07-08T12:45:25;101537.78;;;44.18;16.04
21547;BME280;41275;51.912;4.388;2023-07-08T12:50:47;101538.16;;;45.48;14.88
21547;BME280;41275;51.912;4.388;2023-07-08T12:56:11;101535.06;;;46.34;14.53
21547;BME280;41275;51.912;4.388;2023-07-08T13:01:33;101530.94;;;46.79;13.86
21547;BME280;41275;51.912;4.388;2023-07-08T13:06:55;101534.53;;;47.38;13.48
21547;BME280;41275;51.912;4.388;2023-07-08T13:12:18;101532.06;;;47.49;13.11
21547;BME280;41275;51.912;4.388;2023-07-08T13:17:45;101527.22;;;47.68;13.44
21547;BME280;41275;51.912;4.388;2023-07-08T13:23:07;101526.78;;;48.49;12.21
21547;BME280;41275;51.912;4.388;2023-07-08T13:28:36;101531.16;;;48.83;12.01
21547;BME280;41275;51.912;4.388;2023-07-08T13:34:13;101545.03;;;48.44;12.00
21547;BME280;41275;51.912;4.388;2023-07-08T13:39:36;101550.94;;;48.46;11.58
21547;BME280;41275;51.912;4.388;2023-07-08T13:44:58;101550.50;;;49.14;10.95
21547;BME280;41275;51.912;4.388;2023-07-08T13:50:25;101550.06;;;49.30;10.65
21547;BME280;41275;51.912;4.388;2023-07-08T13:55:48;101550.25;;;49.27;11.07
21547;BME280;41275;51.912;4.388;2023-07-08T14:01:24;101538.94;;;49.36;10.33
21547;BME280;41275;51.912;4.388;2023-07-08T14:06:46;101540.91;;;49.45;10.55
21547;BME280;41275;51.912;4.388;2023-07-08T14:12:08;101541.56;;;49.39;10.63
21547;BME280;41275;51.912;4.388;2023-07-08T14:17:29;101551.19;;;50.31;10.10
21547;BME280;41275;51.912;4.388;2023-07-08T14:22:50;101555.28;;;50.30;10.15
21547;BME280;41275;51.912;4.388;2023-07-08T14:28:12;101554.22;;;49.98;10.16
21547;BME280;41275;51.912;4.388;2023-07-08T14:33:33;101550.25;;;49.03;11.09
21547;BME280;41275;51.912;4.388;2023-07-08T14:38:54;101550.75;;;49.64;11.00
21547;BME280;41275;51.912;4.388;2023-07-08T14:44:30;101547.72;;;48.72;11.41
21547;BME280;41275;51.912;4.388;2023-07-08T14:49:51;101546.78;;;47.13;12.25
21547;BME280;41275;51.912;4.388;2023-07-08T14:55:13;101550.03;;;46.18;12.52
21547;BME280;41275;51.912;4.388;2023-07-08T15:00:34;101549.22;;;45.39;13.96
21547;BME280;41275;51.912;4.388;2023-07-08T15:05:55;101548.50;;;44.74;14.15
21547;BME280;41275;51.912;4.388;2023-07-08T15:11:17;101545.63;;;44.36;14.24
21547;BME280;41275;51.912;4.388;2023-07-08T15:16:39;101535.63;;;44.51;14.70
21547;BME280;41275;51.912;4.388;2023-07-08T15:22:00;101539.00;;;44.85;14.65
21547;BME280;41275;51.912;4.388;2023-07-08T15:27:22;101535.19;;;44.11;14.87
21547;BME280;41275;51.912;4.388;2023-07-08T15:32:44;101533.84;;;43.25;15.51
21547;BME280;41275;51.912;4.388;2023-07-08T15:38:05;101536.00;;;42.84;15.99
21547;BME280;41275;51.912;4.388;2023-07-08T15:43:26;101528.69;;;42.14;18.10
21547;BME280;41275;51.912;4.388;2023-07-08T15:48:48;101530.97;;;41.29;19.20
21547;BME280;41275;51.912;4.388;2023-07-08T15:54:10;101540.84;;;41.07;19.95
21547;BME280;41275;51.912;4.388;2023-07-08T15:59:32;101532.44;;;40.83;20.50
21547;BME280;41275;51.912;4.388;2023-07-08T16:04:53;101528.00;;;41.16;20.91
21547;BME280;41275;51.912;4.388;2023-07-08T16:10:15;101539.91;;;41.17;20.66
21547;BME280;41275;51.912;4.388;2023-07-08T16:15:36;101536.13;;;41.31;20.62
21547;BME280;41275;51.912;4.388;2023-07-08T16:20:59;101526.97;;;41.07;21.34
21547;BME280;41275;51.912;4.388;2023-07-08T16:26:20;101526.44;;;41.15;21.00
21547;BME280;41275;51.912;4.388;2023-07-08T16:31:41;101529.34;;;41.08;20.67
21547;BME280;41275;51.912;4.388;2023-07-08T16:37:03;101526.03;;;41.87;19.93
21547;BME280;41275;51.912;4.388;2023-07-08T16:42:24;101521.03;;;42.95;19.75
21547;BME280;41275;51.912;4.388;2023-07-08T16:47:46;101512.53;;;44.89;17.94
21547;BME280;41275;51.912;4.388;2023-07-08T16:53:10;101515.03;;;46.13;16.59
21547;BME280;41275;51.912;4.388;2023-07-08T16:58:31;101515.50;;;46.65;15.81
21547;BME280;41275;51.912;4.388;2023-07-08T17:03:53;101523.41;;;46.97;15.69
21547;BME280;41275;51.912;4.388;2023-07-08T17:09:15;101527.28;;;46.29;15.97
21547;BME280;41275;51.912;4.388;2023-07-08T17:14:36;101532.94;;;45.24;16.92
21547;BME280;41275;51.912;4.388;2023-07-08T17:20:08;101525.88;;;44.01;17.85
21547;BME280;41275;51.912;4.388;2023-07-08T17:25:34;101531.81;;;41.97;19.87
21547;BME280;41275;51.912;4.388;2023-07-08T17:30:55;101521.06;;;41.05;20.78
21547;BME280;41275;51.912;4.388;2023-07-08T17:36:17;101510.00;;;40.40;21.29
21547;BME280;41275;51.912;4.388;2023-07-08T17:41:38;101519.66;;;40.28;21.46
21547;BME280;41275;51.912;4.388;2023-07-08T17:47:00;101519.63;;;40.32;21.87
21547;BME280;41275;51.912;4.388;2023-07-08T17:52:21;101519.84;;;40.14;21.99
21547;BME280;41275;51.912;4.388;2023-07-08T17:57:45;101529.41;;;39.68;22.83
21547;BME280;41275;51.912;4.388;2023-07-08T18:03:09;101517.88;;;39.73;22.53
21547;BME280;41275;51.912;4.388;2023-07-08T18:08:30;101513.91;;;40.46;21.84
21547;BME280;41275;51.912;4.388;2023-07-08T18:13:52;101511.25;;;41.24;21.01
21547;BME280;41275;51.912;4.388;2023-07-08T18:19:14;101519.69;;;40.59;21.67
21547;BME280;41275;51.912;4.388;2023-07-08T18:24:35;101515.19;;;41.93;20.77
21547;BME280;41275;51.912;4.388;2023-07-08T18:29:56;101532.47;;;42.04;20.18
21547;BME280;41275;51.912;4.388;2023-07-08T18:35:21;101543.28;;;41.28;20.58
21547;BME280;41275;51.912;4.388;2023-07-08T18:40:43;101551.34;;;40.65;21.67
21547;BME280;41275;51.912;4.388;2023-07-08T18:46:04;101555.19;;;41.29;21.26
21547;BME280;41275;51.912;4.388;2023-07-08T18:51:39;101572.53;;;40.10;22.46
21547;BME280;41275;51.912;4.388;2023-07-08T18:57:01;101572.63;;;38.92;23.76
21547;BME280;41275;51.912;4.388;2023-07-08T19:02:36;101568.94;;;38.07;24.51
21547;BME280;41275;51.912;4.388;2023-07-08T19:08:00;101579.59;;;37.62;24.85
21547;BME280;41275;51.912;4.388;2023-07-08T19:13:22;101582.66;;;37.18;25.95
21547;BME280;41275;51.912;4.388;2023-07-08T19:18:50;101582.19;;;36.91;26.29
21547;BME280;41275;51.912;4.388;2023-07-08T19:24:14;101577.34;;;36.66;26.79
21547;BME280;41275;51.912;4.388;2023-07-08T19:29:36;101575.16;;;36.31;27.24
21547;BME280;41275;51.912;4.388;2023-07-08T19:34:57;101568.78;;;36.12;27.76
21547;BME280;41275;51.912;4.388;2023-07-08T19:40:21;101572.56;;;35.97;28.01
21547;BME280;41275;51.912;4.388;2023-07-08T19:45:43;101567.31;;;35.78;28.25
21547;BME280;41275;51.912;4.388;2023-07-08T19:51:04;101565.13;;;35.50;28.38
21547;BME280;41275;51.912;4.388;2023-07-08T19:56:25;101568.91;;;35.38;28.59
21547;BME280;41275;51.912;4.388;2023-07-08T20:01:49;101573.03;;;35.21;28.89
21547;BME280;41275;51.912;4.388;2023-07-08T20:07:12;101584.41;;;35.16;29.11
21547;BME280;41275;51.912;4.388;2023-07-08T20:12:33;101583.03;;;34.99;29.33
21547;BME280;41275;51.912;4.388;2023-07-08T20:17:59;101599.75;;;34.87;29.46
21547;BME280;41275;51.912;4.388;2023-07-08T20:23:20;101614.94;;;34.77;29.65
21547;BME280;41275;51.912;4.388;2023-07-08T20:28:41;101620.78;;;34.72;29.74
21547;BME280;41275;51.912;4.388;2023-07-08T20:34:02;101633.25;;;34.66;29.86
21547;BME280;41275;51.912;4.388;2023-07-08T20:39:23;101626.84;;;34.58;30.65
21547;BME280;41275;51.912;4.388;2023-07-08T20:44:48;101626.69;;;34.48;31.27
21547;BME280;41275;51.912;4.388;2023-07-08T20:50:18;101627.69;;;34.36;31.75
21547;BME280;41275;51.912;4.388;2023-07-08T20:55:41;101625.56;;;34.26;32.21
21547;BME280;41275;51.912;4.388;2023-07-08T21:01:02;101626.56;;;34.14;32.28
21547;BME280;41275;51.912;4.388;2023-07-08T21:06:27;101622.44;;;34.01;32.47
21547;BME280;41275;51.912;4.388;2023-07-08T21:11:50;101615.16;;;33.89;32.91
21547;BME280;41275;51.912;4.388;2023-07-08T21:17:16;101633.88;;;33.83;33.06
21547;BME280;41275;51.912;4.388;2023-07-08T21:22:38;101632.53;;;33.74;33.31
21547;BME280;41275;51.912;4.388;2023-07-08T21:27:59;101642.53;;;33.62;33.67
21547;BME280;41275;51.912;4.388;2023-07-08T21:33:21;101635.56;;;33.45;34.03
21547;BME280;41275;51.912;4.388;2023-07-08T21:38:42;101641.19;;;33.33;34.05
21547;BME280;41275;51.912;4.388;2023-07-08T21:44:03;101637.84;;;33.24;34.58
21547;BME280;41275;51.912;4.388;2023-07-08T21:49:24;101646.38;;;33.19;34.63
21547;BME280;41275;51.912;4.388;2023-07-08T21:54:46;101660.31;;;33.10;34.95
21547;BME280;41275;51.912;4.388;2023-07-08T22:00:07;101666.88;;;33.06;34.76
21547;BME280;41275;51.912;4.388;2023-07-08T22:05:31;101669.81;;;32.97;35.48
21547;BME280;41275;51.912;4.388;2023-07-08T22:10:55;101672.50;;;32.93;35.26
21547;BME280;41275;51.912;4.388;2023-07-08T22:16:19;101672.66;;;32.85;35.75
21547;BME280;41275;51.912;4.388;2023-07-08T22:21:41;101680.00;;;32.81;35.76
21547;BME280;41275;51.912;4.388;2023-07-08T22:27:03;101680.19;;;32.72;36.03
21547;BME280;41275;51.912;4.388;2023-07-08T22:32:24;101678.69;;;32.74;36.29
21547;BME280;41275;51.912;4.388;2023-07-08T22:37:46;101675.03;;;32.86;36.13
21547;BME280;41275;51.912;4.388;2023-07-08T22:43:15;101677.41;;;32.88;36.48
21547;BME280;41275;51.912;4.388;2023-07-08T22:48:38;101665.94;;;32.82;36.12
21547;BME280;41275;51.912;4.388;2023-07-08T22:53:59;101653.94;;;32.71;36.46
21547;BME280;41275;51.912;4.388;2023-07-08T22:59:20;101652.41;;;32.54;36.88
21547;BME280;41275;51.912;4.388;2023-07-08T23:04:41;101668.66;;;32.47;37.26
21547;BME280;41275;51.912;4.388;2023-07-08T23:10:03;101667.22;;;32.37;37.87
21547;BME280;41275;51.912;4.388;2023-07-08T23:15:24;101674.94;;;32.32;38.03
21547;BME280;41275;51.912;4.388;2023-07-08T23:20:45;101672.00;;;32.24;38.36
21547;BME280;41275;51.912;4.388;2023-07-08T23:26:19;101662.13;;;32.20;38.96
21547;BME280;41275;51.912;4.388;2023-07-08T23:31:41;101658.13;;;32.17;39.48
21547;BME280;41275;51.912;4.388;2023-07-08T23:37:03;101654.97;;;32.15;39.72
21547;BME280;41275;51.912;4.388;2023-07-08T23:42:25;101659.47;;;32.08;39.87
21547;BME280;41275;51.912;4.388;2023-07-08T23:47:46;101652.22;;;31.99;40.35
21547;BME280;41275;51.912;4.388;2023-07-08T23:53:12;101658.81;;;31.98;40.56
21547;BME280;41275;51.912;4.388;2023-07-08T23:58:34;101660.78;;;31.98;40.28
